sensor_id;sensor_type;location;lat;lon;timestamp;P1;durP1;ratioP1;P2;durP2;ratioP2
23745;SDS011;12053;48.878;9.632;2022-09-01T00:01:28;15.07;;;13.57;;
23745;SDS011;12053;48.878;9.632;2022-09-01T00:03:56;21.40;;;14.75;;
23745;SDS011;12053;48.878;9.632;2022-09-01T00:06:30;17.90;;;15.98;;
23745;SDS011;12053;48.878;9.632;2022-09-01T00:08:59;18.60;;;15.48;;
23745;SDS011;12053;48.878;9.632;2022-09-01T00:11:28;23.08;;;17.23;;
23745;SDS011;12053;48.878;9.632;2022-09-01T00:13:56;21.23;;;17.90;;
23745;SDS011;12053;48.878;9.632;2022-09-01T00:16:23;19.45;;;16.75;;
23745;SDS011;12053;48.878;9.632;2022-09-01T00:18:51;20.05;;;17.17;;
23745;SDS011;12053;48.878;9.632;2022-09-01T00:21:23;22.00;;;18.60;;
23745;SDS011;12053;48.878;9.632;2022-09-01T00:23:50;28.45;;;19.88;;
23745;SDS011;12053;48.878;9.632;2022-09-01T00:26:18;23.50;;;18.83;;
23745;SDS011;12053;48.878;9.632;2022-09-01T00:28:45;22.17;;;19.65;;
23745;SDS011;12053;48.878;9.632;2022-09-01T00:31:13;24.65;;;20.02;;
23745;SDS011;12053;48.878;9.632;2022-09-01T00:33:41;24.23;;;21.00;;
23745;SDS011;12053;48.878;9.632;2022-09-01T00:36:08;26.60;;;21.27;;
23745;SDS011;12053;48.878;9.632;2022-09-01T00:38:35;24.63;;;21.00;;
23745;SDS011;12053;48.878;9.632;2022-09-01T00:41:03;25.98;;;21.65;;
23745;SDS011;12053;48.878;9.632;2022-09-01T00:46:02;26.25;;;21.40;;
23745;SDS011;12053;48.878;9.632;2022-09-01T00:48:29;25.50;;;20.55;;
23745;SDS011;12053;48.878;9.632;2022-09-01T00:50:58;27.17;;;22.77;;
23745;SDS011;12053;48.878;9.632;2022-09-01T00:53:26;25.65;;;21.17;;
23745;SDS011;12053;48.878;9.632;2022-09-01T00:55:53;27.35;;;22.27;;
23745;SDS011;12053;48.878;9.632;2022-09-01T00:58:21;22.80;;;20.00;;
23745;SDS011;12053;48.878;9.632;2022-09-01T01:00:48;23.80;;;20.38;;
23745;SDS011;12053;48.878;9.632;2022-09-01T01:03:17;23.65;;;20.90;;
23745;SDS011;12053;48.878;9.632;2022-09-01T01:05:48;25.95;;;20.73;;
23745;SDS011;12053;48.878;9.632;2022-09-01T01:08:21;23.65;;;19.80;;
23745;SDS011;12053;48.878;9.632;2022-09-01T01:10:53;26.75;;;20.90;;
23745;SDS011;12053;48.878;9.632;2022-09-01T01:13:21;23.80;;;21.33;;
23745;SDS011;12053;48.878;9.632;2022-09-01T01:15:51;27.17;;;21.88;;
23745;SDS011;12053;48.878;9.632;2022-09-01T01:18:18;25.70;;;21.80;;
23745;SDS011;12053;48.878;9.632;2022-09-01T01:20:54;26.83;;;22.02;;
23745;SDS011;12053;48.878;9.632;2022-09-01T01:26:09;24.30;;;21.10;;
23745;SDS011;12053;48.878;9.632;2022-09-01T01:28:38;27.85;;;22.13;;
23745;SDS011;12053;48.878;9.632;2022-09-01T01:33:42;28.08;;;22.50;;
23745;SDS011;12053;48.878;9.632;2022-09-01T01:38:39;24.58;;;21.15;;
23745;SDS011;12053;48.878;9.632;2022-09-01T01:41:09;25.92;;;22.38;;
23745;SDS011;12053;48.878;9.632;2022-09-01T01:43:36;29.25;;;21.63;;
23745;SDS011;12053;48.878;9.632;2022-09-01T01:46:05;28.63;;;23.40;;
23745;SDS011;12053;48.878;9.632;2022-09-01T01:48:35;30.05;;;24.15;;
23745;SDS011;12053;48.878;9.632;2022-09-01T01:51:04;27.77;;;22.20;;
23745;SDS011;12053;48.878;9.632;2022-09-01T01:53:32;27.95;;;23.15;;
23745;SDS011;12053;48.878;9.632;2022-09-01T01:55:59;31.00;;;23.73;;
23745;SDS011;12053;48.878;9.632;2022-09-01T01:58:27;34.90;;;25.80;;
23745;SDS011;12053;48.878;9.632;2022-09-01T02:00:55;31.48;;;26.25;;
23745;SDS011;12053;48.878;9.632;2022-09-01T02:03:25;35.75;;;28.65;;
23745;SDS011;12053;48.878;9.632;2022-09-01T02:05:54;42.47;;;28.90;;
23745;SDS011;12053;48.878;9.632;2022-09-01T02:08:22;40.60;;;29.85;;
23745;SDS011;12053;48.878;9.632;2022-09-01T02:10:52;37.83;;;30.23;;
23745;SDS011;12053;48.878;9.632;2022-09-01T02:13:21;38.05;;;30.50;;
23745;SDS011;12053;48.878;9.632;2022-09-01T02:15:58;42.53;;;32.60;;
23745;SDS011;12053;48.878;9.632;2022-09-01T02:18:28;41.75;;;32.25;;
23745;SDS011;12053;48.878;9.632;2022-09-01T02:20:56;44.70;;;32.97;;
23745;SDS011;12053;48.878;9.632;2022-09-01T02:23:26;42.38;;;30.17;;
23745;SDS011;12053;48.878;9.632;2022-09-01T02:25:57;44.00;;;32.65;;
23745;SDS011;12053;48.878;9.632;2022-09-01T02:28:42;45.30;;;33.92;;
23745;SDS011;12053;48.878;9.632;2022-09-01T02:31:11;45.08;;;34.05;;
23745;SDS011;12053;48.878;9.632;2022-09-01T02:33:38;55.22;;;38.70;;
23745;SDS011;12053;48.878;9.632;2022-09-01T02:36:11;52.42;;;35.67;;
23745;SDS011;12053;48.878;9.632;2022-09-01T02:38:39;50.17;;;36.00;;
23745;SDS011;12053;48.878;9.632;2022-09-01T02:43:40;50.20;;;36.20;;
23745;SDS011;12053;48.878;9.632;2022-09-01T02:46:09;49.78;;;33.85;;
23745;SDS011;12053;48.878;9.632;2022-09-01T02:48:38;54.97;;;37.03;;
23745;SDS011;12053;48.878;9.632;2022-09-01T02:51:07;53.00;;;35.35;;
23745;SDS011;12053;48.878;9.632;2022-09-01T02:53:35;59.50;;;38.22;;
23745;SDS011;12053;48.878;9.632;2022-09-01T02:56:05;60.40;;;38.42;;
23745;SDS011;12053;48.878;9.632;2022-09-01T02:58:37;62.78;;;39.47;;
23745;SDS011;12053;48.878;9.632;2022-09-01T03:01:15;59.13;;;36.58;;
23745;SDS011;12053;48.878;9.632;2022-09-01T03:03:46;57.95;;;37.40;;
23745;SDS011;12053;48.878;9.632;2022-09-01T03:06:13;58.97;;;37.28;;
23745;SDS011;12053;48.878;9.632;2022-09-01T03:08:44;55.40;;;36.05;;
23745;SDS011;12053;48.878;9.632;2022-09-01T03:11:12;55.80;;;35.88;;
23745;SDS011;12053;48.878;9.632;2022-09-01T03:13:39;52.83;;;35.17;;
23745;SDS011;12053;48.878;9.632;2022-09-01T03:16:07;54.80;;;34.17;;
23745;SDS011;12053;48.878;9.632;2022-09-01T03:18:35;57.05;;;36.67;;
23745;SDS011;12053;48.878;9.632;2022-09-01T03:21:02;58.85;;;37.92;;
23745;SDS011;12053;48.878;9.632;2022-09-01T03:23:30;66.80;;;37.75;;
23745;SDS011;12053;48.878;9.632;2022-09-01T03:25:59;62.53;;;38.67;;
23745;SDS011;12053;48.878;9.632;2022-09-01T03:28:26;64.85;;;38.95;;
23745;SDS011;12053;48.878;9.632;2022-09-01T03:30:54;63.67;;;37.35;;
23745;SDS011;12053;48.878;9.632;2022-09-01T03:33:22;66.15;;;38.38;;
23745;SDS011;12053;48.878;9.632;2022-09-01T03:35:50;66.22;;;39.40;;
23745;SDS011;12053;48.878;9.632;2022-09-01T03:38:17;71.57;;;41.42;;
23745;SDS011;12053;48.878;9.632;2022-09-01T03:40:50;64.28;;;39.75;;
23745;SDS011;12053;48.878;9.632;2022-09-01T03:43:18;65.20;;;38.28;;
23745;SDS011;12053;48.878;9.632;2022-09-01T03:45:50;63.07;;;38.83;;
23745;SDS011;12053;48.878;9.632;2022-09-01T03:48:17;62.15;;;37.97;;
23745;SDS011;12053;48.878;9.632;2022-09-01T03:50:45;55.63;;;36.13;;
23745;SDS011;12053;48.878;9.632;2022-09-01T03:53:14;58.10;;;36.40;;
23745;SDS011;12053;48.878;9.632;2022-09-01T03:55:43;60.78;;;38.00;;
23745;SDS011;12053;48.878;9.632;2022-09-01T03:58:11;57.15;;;36.10;;
23745;SDS011;12053;48.878;9.632;2022-09-01T04:00:41;56.42;;;36.03;;
23745;SDS011;12053;48.878;9.632;2022-09-01T04:03:15;54.83;;;36.88;;
23745;SDS011;12053;48.878;9.632;2022-09-01T04:05:54;51.33;;;35.20;;
23745;SDS011;12053;48.878;9.632;2022-09-01T04:08:22;52.15;;;34.17;;
23745;SDS011;12053;48.878;9.632;2022-09-01T04:10:59;48.97;;;33.17;;
23745;SDS011;12053;48.878;9.632;2022-09-01T04:13:29;47.75;;;32.63;;
23745;SDS011;12053;48.878;9.632;2022-09-01T04:15:57;48.47;;;33.28;;
23745;SDS011;12053;48.878;9.632;2022-09-01T04:18:25;52.10;;;34.90;;
23745;SDS011;12053;48.878;9.632;2022-09-01T04:20:53;47.05;;;32.58;;
23745;SDS011;12053;48.878;9.632;2022-09-01T04:23:31;45.88;;;33.00;;
23745;SDS011;12053;48.878;9.632;2022-09-01T04:26:03;45.35;;;32.22;;
23745;SDS011;12053;48.878;9.632;2022-09-01T04:28:35;46.33;;;31.90;;
23745;SDS011;12053;48.878;9.632;2022-09-01T04:31:04;46.05;;;31.60;;
23745;SDS011;12053;48.878;9.632;2022-09-01T04:33:34;40.10;;;29.20;;
23745;SDS011;12053;48.878;9.632;2022-09-01T04:36:05;32.92;;;26.45;;
23745;SDS011;12053;48.878;9.632;2022-09-01T04:38:35;33.33;;;26.20;;
23745;SDS011;12053;48.878;9.632;2022-09-01T04:41:03;32.75;;;24.85;;
23745;SDS011;12053;48.878;9.632;2022-09-01T04:43:32;31.75;;;24.65;;
23745;SDS011;12053;48.878;9.632;2022-09-01T04:45:59;29.95;;;24.17;;
23745;SDS011;12053;48.878;9.632;2022-09-01T04:48:28;31.35;;;24.48;;
23745;SDS011;12053;48.878;9.632;2022-09-01T04:50:56;32.67;;;25.00;;
23745;SDS011;12053;48.878;9.632;2022-09-01T04:53:24;34.47;;;26.90;;
23745;SDS011;12053;48.878;9.632;2022-09-01T04:55:53;34.53;;;26.92;;
23745;SDS011;12053;48.878;9.632;2022-09-01T04:58:21;33.25;;;26.20;;
23745;SDS011;12053;48.878;9.632;2022-09-01T05:00:49;36.60;;;26.30;;
23745;SDS011;12053;48.878;9.632;2022-09-01T05:03:17;31.30;;;23.95;;
23745;SDS011;12053;48.878;9.632;2022-09-01T05:05:49;28.67;;;22.40;;
23745;SDS011;12053;48.878;9.632;2022-09-01T05:08:19;26.15;;;21.75;;
23745;SDS011;12053;48.878;9.632;2022-09-01T05:10:50;29.15;;;21.92;;
23745;SDS011;12053;48.878;9.632;2022-09-01T05:13:19;27.63;;;21.45;;
23745;SDS011;12053;48.878;9.632;2022-09-01T05:16:00;28.88;;;22.25;;
23745;SDS011;12053;48.878;9.632;2022-09-01T05:18:27;26.75;;;21.50;;
23745;SDS011;12053;48.878;9.632;2022-09-01T05:20:55;26.95;;;22.15;;
23745;SDS011;12053;48.878;9.632;2022-09-01T05:23:22;30.17;;;22.75;;
23745;SDS011;12053;48.878;9.632;2022-09-01T05:25:51;26.80;;;22.33;;
23745;SDS011;12053;48.878;9.632;2022-09-01T05:28:20;29.13;;;21.95;;
23745;SDS011;12053;48.878;9.632;2022-09-01T05:30:52;26.25;;;21.38;;
23745;SDS011;12053;48.878;9.632;2022-09-01T05:33:19;26.38;;;21.10;;
23745;SDS011;12053;48.878;9.632;2022-09-01T05:35:54;24.65;;;20.58;;
23745;SDS011;12053;48.878;9.632;2022-09-01T05:38:21;24.88;;;20.23;;
23745;SDS011;12053;48.878;9.632;2022-09-01T05:40:54;27.23;;;21.92;;
23745;SDS011;12053;48.878;9.632;2022-09-01T05:43:22;23.20;;;20.23;;
23745;SDS011;12053;48.878;9.632;2022-09-01T05:45:52;24.33;;;20.63;;
23745;SDS011;12053;48.878;9.632;2022-09-01T05:48:36;22.42;;;20.02;;
23745;SDS011;12053;48.878;9.632;2022-09-01T05:51:05;22.67;;;19.92;;
23745;SDS011;12053;48.878;9.632;2022-09-01T05:53:54;23.90;;;20.50;;
23745;SDS011;12053;48.878;9.632;2022-09-01T05:56:25;26.90;;;21.92;;
23745;SDS011;12053;48.878;9.632;2022-09-01T05:58:53;27.83;;;21.40;;
23745;SDS011;12053;48.878;9.632;2022-09-01T06:01:40;27.20;;;21.13;;
23745;SDS011;12053;48.878;9.632;2022-09-01T06:04:14;28.17;;;20.73;;
23745;SDS011;12053;48.878;9.632;2022-09-01T06:06:42;26.45;;;21.02;;
23745;SDS011;12053;48.878;9.632;2022-09-01T06:09:31;25.67;;;20.30;;
23745;SDS011;12053;48.878;9.632;2022-09-01T06:11:58;23.45;;;18.77;;
23745;SDS011;12053;48.878;9.632;2022-09-01T06:14:27;18.05;;;15.90;;
23745;SDS011;12053;48.878;9.632;2022-09-01T06:16:55;17.90;;;15.27;;
23745;SDS011;12053;48.878;9.632;2022-09-01T06:19:22;19.25;;;16.42;;
23745;SDS011;12053;48.878;9.632;2022-09-01T06:21:49;19.20;;;15.95;;
23745;SDS011;12053;48.878;9.632;2022-09-01T06:24:16;17.52;;;15.25;;
23745;SDS011;12053;48.878;9.632;2022-09-01T06:26:43;17.67;;;14.65;;
23745;SDS011;12053;48.878;9.632;2022-09-01T06:29:12;17.05;;;14.88;;
23745;SDS011;12053;48.878;9.632;2022-09-01T06:31:40;18.05;;;13.50;;
23745;SDS011;12053;48.878;9.632;2022-09-01T06:34:09;14.57;;;12.27;;
23745;SDS011;12053;48.878;9.632;2022-09-01T06:36:42;15.50;;;12.73;;
23745;SDS011;12053;48.878;9.632;2022-09-01T06:39:11;15.18;;;12.93;;
23745;SDS011;12053;48.878;9.632;2022-09-01T06:41:48;16.73;;;13.82;;
23745;SDS011;12053;48.878;9.632;2022-09-01T06:44:19;17.75;;;14.32;;
23745;SDS011;12053;48.878;9.632;2022-09-01T06:46:50;15.60;;;13.85;;
23745;SDS011;12053;48.878;9.632;2022-09-01T06:49:21;18.63;;;13.98;;
23745;SDS011;12053;48.878;9.632;2022-09-01T06:51:54;16.80;;;14.93;;
23745;SDS011;12053;48.878;9.632;2022-09-01T06:54:22;17.73;;;14.65;;
23745;SDS011;12053;48.878;9.632;2022-09-01T06:56:52;22.38;;;14.05;;
23745;SDS011;12053;48.878;9.632;2022-09-01T06:59:19;17.88;;;15.15;;
23745;SDS011;12053;48.878;9.632;2022-09-01T07:01:47;16.67;;;13.52;;
23745;SDS011;12053;48.878;9.632;2022-09-01T07:04:17;14.95;;;13.35;;
23745;SDS011;12053;48.878;9.632;2022-09-01T07:06:45;15.95;;;13.93;;
23745;SDS011;12053;48.878;9.632;2022-09-01T07:09:26;16.80;;;13.20;;
23745;SDS011;12053;48.878;9.632;2022-09-01T07:12:14;18.30;;;14.48;;
23745;SDS011;12053;48.878;9.632;2022-09-01T07:14:53;16.40;;;14.00;;
23745;SDS011;12053;48.878;9.632;2022-09-01T07:17:49;15.40;;;13.55;;
23745;SDS011;12053;48.878;9.632;2022-09-01T07:20:18;14.65;;;12.77;;
23745;SDS011;12053;48.878;9.632;2022-09-01T07:22:51;15.32;;;12.65;;
23745;SDS011;12053;48.878;9.632;2022-09-01T07:25:36;15.65;;;12.27;;
23745;SDS011;12053;48.878;9.632;2022-09-01T07:28:24;13.60;;;12.20;;
23745;SDS011;12053;48.878;9.632;2022-09-01T07:31:05;13.18;;;11.57;;
23745;SDS011;12053;48.878;9.632;2022-09-01T07:33:54;15.20;;;11.82;;
23745;SDS011;12053;48.878;9.632;2022-09-01T07:36:44;12.45;;;10.80;;
23745;SDS011;12053;48.878;9.632;2022-09-01T07:39:31;13.70;;;10.65;;
23745;SDS011;12053;48.878;9.632;2022-09-01T07:42:16;11.43;;;9.70;;
23745;SDS011;12053;48.878;9.632;2022-09-01T07:45:04;13.15;;;10.13;;
23745;SDS011;12053;48.878;9.632;2022-09-01T07:47:51;10.65;;;9.18;;
23745;SDS011;12053;48.878;9.632;2022-09-01T07:50:19;10.68;;;8.98;;
23745;SDS011;12053;48.878;9.632;2022-09-01T07:53:09;9.32;;;8.43;;
23745;SDS011;12053;48.878;9.632;2022-09-01T07:55:41;8.60;;;7.80;;
23745;SDS011;12053;48.878;9.632;2022-09-01T07:58:09;10.52;;;8.40;;
23745;SDS011;12053;48.878;9.632;2022-09-01T08:00:38;8.43;;;7.53;;
23745;SDS011;12053;48.878;9.632;2022-09-01T08:03:05;7.88;;;7.05;;
23745;SDS011;12053;48.878;9.632;2022-09-01T08:05:32;6.20;;;5.40;;
23745;SDS011;12053;48.878;9.632;2022-09-01T08:07:59;6.53;;;5.82;;
23745;SDS011;12053;48.878;9.632;2022-09-01T08:10:27;7.47;;;5.72;;
23745;SDS011;12053;48.878;9.632;2022-09-01T08:12:54;6.55;;;5.93;;
23745;SDS011;12053;48.878;9.632;2022-09-01T08:15:22;6.07;;;5.55;;
23745;SDS011;12053;48.878;9.632;2022-09-01T08:18:10;6.35;;;5.75;;
23745;SDS011;12053;48.878;9.632;2022-09-01T08:20:40;6.30;;;5.40;;
23745;SDS011;12053;48.878;9.632;2022-09-01T08:23:11;7.72;;;6.00;;
23745;SDS011;12053;48.878;9.632;2022-09-01T08:25:39;8.75;;;6.05;;
23745;SDS011;12053;48.878;9.632;2022-09-01T08:28:07;8.73;;;6.15;;
23745;SDS011;12053;48.878;9.632;2022-09-01T08:30:36;6.72;;;5.85;;
23745;SDS011;12053;48.878;9.632;2022-09-01T08:33:04;6.30;;;5.70;;
23745;SDS011;12053;48.878;9.632;2022-09-01T08:35:39;7.10;;;5.80;;
23745;SDS011;12053;48.878;9.632;2022-09-01T08:38:06;7.65;;;5.90;;
23745;SDS011;12053;48.878;9.632;2022-09-01T08:40:34;7.78;;;6.43;;
23745;SDS011;12053;48.878;9.632;2022-09-01T08:45:47;6.00;;;5.40;;
23745;SDS011;12053;48.878;9.632;2022-09-01T08:51:30;6.47;;;5.78;;
23745;SDS011;12053;48.878;9.632;2022-09-01T08:56:57;6.25;;;5.40;;
23745;SDS011;12053;48.878;9.632;2022-09-01T08:59:25;6.82;;;5.45;;
23745;SDS011;12053;48.878;9.632;2022-09-01T09:09:16;6.40;;;5.80;;
23745;SDS011;12053;48.878;9.632;2022-09-01T09:16:51;8.25;;;6.03;;
23745;SDS011;12053;48.878;9.632;2022-09-01T09:19:21;6.50;;;5.18;;
23745;SDS011;12053;48.878;9.632;2022-09-01T09:21:51;6.25;;;5.63;;
23745;SDS011;12053;48.878;9.632;2022-09-01T09:29:59;7.43;;;6.30;;
23745;SDS011;12053;48.878;9.632;2022-09-01T09:32:49;8.93;;;7.82;;
23745;SDS011;12053;48.878;9.632;2022-09-01T09:35:38;9.25;;;7.22;;
23745;SDS011;12053;48.878;9.632;2022-09-01T09:43:55;7.68;;;6.70;;
23745;SDS011;12053;48.878;9.632;2022-09-01T09:49:34;9.55;;;7.38;;
23745;SDS011;12053;48.878;9.632;2022-09-01T09:51:42;7.93;;;7.03;;
23745;SDS011;12053;48.878;9.632;2022-09-01T09:56:39;8.32;;;7.53;;
23745;SDS011;12053;48.878;9.632;2022-09-01T09:59:17;8.90;;;7.10;;
23745;SDS011;12053;48.878;9.632;2022-09-01T10:04:41;7.38;;;6.20;;
23745;SDS011;12053;48.878;9.632;2022-09-01T10:10:24;6.97;;;6.00;;
23745;SDS011;12053;48.878;9.632;2022-09-01T10:12:52;6.43;;;5.82;;
23745;SDS011;12053;48.878;9.632;2022-09-01T10:15:21;6.22;;;5.38;;
23745;SDS011;12053;48.878;9.632;2022-09-01T10:17:49;7.68;;;6.32;;
23745;SDS011;12053;48.878;9.632;2022-09-01T10:20:37;6.70;;;6.10;;
23745;SDS011;12053;48.878;9.632;2022-09-01T10:23:05;7.43;;;6.35;;
23745;SDS011;12053;48.878;9.632;2022-09-01T10:25:40;7.47;;;6.22;;
23745;SDS011;12053;48.878;9.632;2022-09-01T10:30:38;6.45;;;5.78;;
23745;SDS011;12053;48.878;9.632;2022-09-01T10:33:08;7.60;;;5.32;;
23745;SDS011;12053;48.878;9.632;2022-09-01T10:35:47;5.70;;;5.20;;
23745;SDS011;12053;48.878;9.632;2022-09-01T10:38:16;5.35;;;4.85;;
23745;SDS011;12053;48.878;9.632;2022-09-01T10:40:45;5.00;;;4.60;;
23745;SDS011;12053;48.878;9.632;2022-09-01T10:46:07;5.05;;;4.55;;
23745;SDS011;12053;48.878;9.632;2022-09-01T10:48:41;5.32;;;4.72;;
23745;SDS011;12053;48.878;9.632;2022-09-01T10:53:55;5.22;;;4.82;;
23745;SDS011;12053;48.878;9.632;2022-09-01T11:02:10;6.18;;;4.43;;
23745;SDS011;12053;48.878;9.632;2022-09-01T11:07:30;5.32;;;4.82;;
23745;SDS011;12053;48.878;9.632;2022-09-01T11:13:14;5.00;;;4.60;;
23745;SDS011;12053;48.878;9.632;2022-09-01T11:15:44;5.28;;;4.78;;
23745;SDS011;12053;48.878;9.632;2022-09-01T11:18:15;5.63;;;5.13;;
23745;SDS011;12053;48.878;9.632;2022-09-01T11:20:46;5.15;;;4.65;;
23745;SDS011;12053;48.878;9.632;2022-09-01T11:23:21;4.70;;;4.35;;
23745;SDS011;12053;48.878;9.632;2022-09-01T11:28:37;7.20;;;5.85;;
23745;SDS011;12053;48.878;9.632;2022-09-01T11:38:44;5.53;;;5.10;;
23745;SDS011;12053;48.878;9.632;2022-09-01T11:41:22;7.93;;;5.97;;
23745;SDS011;12053;48.878;9.632;2022-09-01T11:43:51;6.93;;;5.70;;
23745;SDS011;12053;48.878;9.632;2022-09-01T11:46:41;7.90;;;5.88;;
23745;SDS011;12053;48.878;9.632;2022-09-01T11:49:22;7.03;;;6.32;;
23745;SDS011;12053;48.878;9.632;2022-09-01T11:51:52;6.57;;;5.57;;
23745;SDS011;12053;48.878;9.632;2022-09-01T11:54:20;5.72;;;5.22;;
23745;SDS011;12053;48.878;9.632;2022-09-01T11:56:48;6.82;;;5.00;;
23745;SDS011;12053;48.878;9.632;2022-09-01T11:59:34;5.35;;;4.82;;
23745;SDS011;12053;48.878;9.632;2022-09-01T12:02:02;7.15;;;5.63;;
23745;SDS011;12053;48.878;9.632;2022-09-01T12:04:31;5.50;;;5.00;;
23745;SDS011;12053;48.878;9.632;2022-09-01T12:07:10;7.03;;;5.13;;
23745;SDS011;12053;48.878;9.632;2022-09-01T12:09:43;4.20;;;3.80;;
23745;SDS011;12053;48.878;9.632;2022-09-01T12:14:59;5.15;;;3.92;;
23745;SDS011;12053;48.878;9.632;2022-09-01T12:17:33;3.33;;;2.92;;
23745;SDS011;12053;48.878;9.632;2022-09-01T12:20:19;3.20;;;3.00;;
23745;SDS011;12053;48.878;9.632;2022-09-01T12:22:54;4.38;;;3.25;;
23745;SDS011;12053;48.878;9.632;2022-09-01T12:25:23;3.25;;;2.95;;
23745;SDS011;12053;48.878;9.632;2022-09-01T12:27:51;2.97;;;2.78;;
23745;SDS011;12053;48.878;9.632;2022-09-01T12:30:18;3.97;;;3.10;;
23745;SDS011;12053;48.878;9.632;2022-09-01T12:32:46;3.60;;;3.30;;
23745;SDS011;12053;48.878;9.632;2022-09-01T12:35:32;3.75;;;3.15;;
23745;SDS011;12053;48.878;9.632;2022-09-01T12:40:45;5.97;;;3.78;;
23745;SDS011;12053;48.878;9.632;2022-09-01T12:46:01;3.33;;;3.00;;
23745;SDS011;12053;48.878;9.632;2022-09-01T12:48:34;3.58;;;3.28;;
23745;SDS011;12053;48.878;9.632;2022-09-01T12:51:23;4.83;;;3.47;;
23745;SDS011;12053;48.878;9.632;2022-09-01T12:53:57;4.25;;;2.92;;
23745;SDS011;12053;48.878;9.632;2022-09-01T12:56:29;3.70;;;3.08;;
23745;SDS011;12053;48.878;9.632;2022-09-01T12:59:03;3.67;;;3.30;;
23745;SDS011;12053;48.878;9.632;2022-09-01T13:01:40;3.40;;;3.10;;
23745;SDS011;12053;48.878;9.632;2022-09-01T13:04:12;3.08;;;2.83;;
23745;SDS011;12053;48.878;9.632;2022-09-01T13:06:39;4.23;;;3.60;;
23745;SDS011;12053;48.878;9.632;2022-09-01T13:09:07;4.40;;;3.42;;
23745;SDS011;12053;48.878;9.632;2022-09-01T13:11:35;4.88;;;3.55;;
23745;SDS011;12053;48.878;9.632;2022-09-01T13:14:22;3.67;;;3.00;;
23745;SDS011;12053;48.878;9.632;2022-09-01T13:16:50;2.92;;;2.67;;
23745;SDS011;12053;48.878;9.632;2022-09-01T13:19:17;4.90;;;3.22;;
23745;SDS011;12053;48.878;9.632;2022-09-01T13:21:53;3.25;;;2.90;;
23745;SDS011;12053;48.878;9.632;2022-09-01T13:24:20;2.90;;;2.70;;
23745;SDS011;12053;48.878;9.632;2022-09-01T13:26:55;5.20;;;3.50;;
23745;SDS011;12053;48.878;9.632;2022-09-01T13:29:42;3.88;;;3.10;;
23745;SDS011;12053;48.878;9.632;2022-09-01T13:32:10;4.32;;;3.55;;
23745;SDS011;12053;48.878;9.632;2022-09-01T13:34:47;6.47;;;3.90;;
23745;SDS011;12053;48.878;9.632;2022-09-01T13:37:17;4.18;;;3.67;;
23745;SDS011;12053;48.878;9.632;2022-09-01T13:39:44;5.78;;;3.75;;
23745;SDS011;12053;48.878;9.632;2022-09-01T13:42:12;5.63;;;3.55;;
23745;SDS011;12053;48.878;9.632;2022-09-01T13:44:41;4.25;;;3.60;;
23745;SDS011;12053;48.878;9.632;2022-09-01T13:47:09;3.90;;;3.55;;
23745;SDS011;12053;48.878;9.632;2022-09-01T13:49:57;3.97;;;3.67;;
23745;SDS011;12053;48.878;9.632;2022-09-01T13:52:35;3.80;;;3.50;;
23745;SDS011;12053;48.878;9.632;2022-09-01T13:55:03;4.38;;;3.80;;
23745;SDS011;12053;48.878;9.632;2022-09-01T13:57:31;4.00;;;3.55;;
23745;SDS011;12053;48.878;9.632;2022-09-01T14:00:03;5.50;;;3.80;;
23745;SDS011;12053;48.878;9.632;2022-09-01T14:02:31;4.50;;;3.95;;
23745;SDS011;12053;48.878;9.632;2022-09-01T14:05:00;3.95;;;3.60;;
23745;SDS011;12053;48.878;9.632;2022-09-01T14:07:27;5.78;;;3.88;;
23745;SDS011;12053;48.878;9.632;2022-09-01T14:09:55;4.25;;;3.85;;
23745;SDS011;12053;48.878;9.632;2022-09-01T14:12:22;4.20;;;3.80;;
23745;SDS011;12053;48.878;9.632;2022-09-01T14:14:50;4.15;;;3.75;;
23745;SDS011;12053;48.878;9.632;2022-09-01T14:17:37;3.92;;;3.63;;
23745;SDS011;12053;48.878;9.632;2022-09-01T14:20:05;4.40;;;4.00;;
23745;SDS011;12053;48.878;9.632;2022-09-01T14:22:33;4.50;;;4.03;;
23745;SDS011;12053;48.878;9.632;2022-09-01T14:25:04;4.68;;;3.95;;
23745;SDS011;12053;48.878;9.632;2022-09-01T14:27:31;4.72;;;4.32;;
23745;SDS011;12053;48.878;9.632;2022-09-01T14:29:58;5.20;;;4.68;;
23745;SDS011;12053;48.878;9.632;2022-09-01T14:32:26;4.50;;;4.10;;
23745;SDS011;12053;48.878;9.632;2022-09-01T14:34:55;5.20;;;4.63;;
23745;SDS011;12053;48.878;9.632;2022-09-01T14:37:22;7.22;;;4.13;;
23745;SDS011;12053;48.878;9.632;2022-09-01T14:39:53;5.43;;;4.57;;
23745;SDS011;12053;48.878;9.632;2022-09-01T14:42:21;4.70;;;4.25;;
23745;SDS011;12053;48.878;9.632;2022-09-01T14:44:50;6.75;;;4.70;;
23745;SDS011;12053;48.878;9.632;2022-09-01T14:47:18;5.28;;;4.78;;
23745;SDS011;12053;48.878;9.632;2022-09-01T14:49:51;5.93;;;5.20;;
23745;SDS011;12053;48.878;9.632;2022-09-01T14:52:18;5.75;;;4.65;;
23745;SDS011;12053;48.878;9.632;2022-09-01T14:54:47;6.32;;;4.88;;
23745;SDS011;12053;48.878;9.632;2022-09-01T14:57:14;5.07;;;4.57;;
23745;SDS011;12053;48.878;9.632;2022-09-01T15:00:03;7.22;;;5.22;;
23745;SDS011;12053;48.878;9.632;2022-09-01T15:02:30;5.55;;;4.85;;
23745;SDS011;12053;48.878;9.632;2022-09-01T15:04:58;5.70;;;4.05;;
23745;SDS011;12053;48.878;9.632;2022-09-01T15:07:25;5.28;;;4.50;;
23745;SDS011;12053;48.878;9.632;2022-09-01T15:09:52;4.55;;;4.20;;
23745;SDS011;12053;48.878;9.632;2022-09-01T15:12:19;5.05;;;4.55;;
23745;SDS011;12053;48.878;9.632;2022-09-01T15:14:47;6.85;;;4.57;;
23745;SDS011;12053;48.878;9.632;2022-09-01T15:17:14;4.40;;;4.00;;
23745;SDS011;12053;48.878;9.632;2022-09-01T15:19:42;4.45;;;4.05;;
23745;SDS011;12053;48.878;9.632;2022-09-01T15:22:09;4.57;;;4.18;;
23745;SDS011;12053;48.878;9.632;2022-09-01T15:24:39;5.03;;;4.43;;
23745;SDS011;12053;48.878;9.632;2022-09-01T15:27:06;8.27;;;4.88;;
23745;SDS011;12053;48.878;9.632;2022-09-01T15:29:33;5.18;;;4.47;;
23745;SDS011;12053;48.878;9.632;2022-09-01T15:32:11;4.63;;;4.22;;
23745;SDS011;12053;48.878;9.632;2022-09-01T15:34:53;4.45;;;4.10;;
23745;SDS011;12053;48.878;9.632;2022-09-01T15:37:20;4.80;;;4.40;;
23745;SDS011;12053;48.878;9.632;2022-09-01T15:39:47;5.80;;;4.25;;
23745;SDS011;12053;48.878;9.632;2022-09-01T15:42:14;5.18;;;4.60;;
23745;SDS011;12053;48.878;9.632;2022-09-01T15:44:42;5.32;;;4.30;;
23745;SDS011;12053;48.878;9.632;2022-09-01T15:47:09;5.30;;;4.47;;
23745;SDS011;12053;48.878;9.632;2022-09-01T15:49:37;5.00;;;4.50;;
23745;SDS011;12053;48.878;9.632;2022-09-01T15:52:04;8.18;;;4.50;;
23745;SDS011;12053;48.878;9.632;2022-09-01T15:54:31;5.20;;;4.70;;
23745;SDS011;12053;48.878;9.632;2022-09-01T15:57:03;4.97;;;4.50;;
23745;SDS011;12053;48.878;9.632;2022-09-01T15:59:30;5.32;;;4.78;;
23745;SDS011;12053;48.878;9.632;2022-09-01T16:01:58;4.53;;;4.20;;
23745;SDS011;12053;48.878;9.632;2022-09-01T16:04:26;6.72;;;4.28;;
23745;SDS011;12053;48.878;9.632;2022-09-01T16:06:53;5.47;;;4.97;;
23745;SDS011;12053;48.878;9.632;2022-09-01T16:09:21;5.25;;;4.30;;
23745;SDS011;12053;48.878;9.632;2022-09-01T16:11:51;5.35;;;4.85;;
23745;SDS011;12053;48.878;9.632;2022-09-01T16:14:18;4.47;;;4.07;;
23745;SDS011;12053;48.878;9.632;2022-09-01T16:19:25;5.03;;;4.22;;
23745;SDS011;12053;48.878;9.632;2022-09-01T16:24:24;4.22;;;3.83;;
23745;SDS011;12053;48.878;9.632;2022-09-01T16:26:51;4.30;;;3.63;;
23745;SDS011;12053;48.878;9.632;2022-09-01T16:29:41;4.63;;;4.18;;
23745;SDS011;12053;48.878;9.632;2022-09-01T16:32:10;4.40;;;3.97;;
23745;SDS011;12053;48.878;9.632;2022-09-01T16:34:39;3.80;;;3.50;;
23745;SDS011;12053;48.878;9.632;2022-09-01T16:37:15;5.00;;;4.22;;